sensor_id;sensor_type;location;lat;lon;timestamp;P1;durP1;ratioP1;P2;durP2;ratioP2
65691;SDS011;52411;52.716;6.696;2022-08-27T00:01:48;9.00;;;3.13;;
65691;SDS011;52411;52.716;6.696;2022-08-27T00:04:14;8.18;;;4.20;;
65691;SDS011;52411;52.716;6.696;2022-08-27T00:06:40;8.55;;;3.33;;
65691;SDS011;52411;52.716;6.696;2022-08-27T00:09:06;9.52;;;3.10;;
65691;SDS011;52411;52.716;6.696;2022-08-27T00:11:32;8.27;;;3.03;;
65691;SDS011;52411;52.716;6.696;2022-08-27T00:13:58;6.13;;;2.55;;
65691;SDS011;52411;52.716;6.696;2022-08-27T00:16:24;7.43;;;2.90;;
65691;SDS011;52411;52.716;6.696;2022-08-27T00:18:52;7.13;;;3.13;;
65691;SDS011;52411;52.716;6.696;2022-08-27T00:21:19;6.60;;;2.90;;
65691;SDS011;52411;52.716;6.696;2022-08-27T00:23:45;10.13;;;2.97;;
65691;SDS011;52411;52.716;6.696;2022-08-27T00:26:10;5.90;;;2.95;;
65691;SDS011;52411;52.716;6.696;2022-08-27T00:28:37;9.27;;;3.15;;
65691;SDS011;52411;52.716;6.696;2022-08-27T00:31:03;5.72;;;2.83;;
65691;SDS011;52411;52.716;6.696;2022-08-27T00:33:29;10.25;;;3.40;;
65691;SDS011;52411;52.716;6.696;2022-08-27T00:35:55;7.50;;;3.05;;
65691;SDS011;52411;52.716;6.696;2022-08-27T00:38:21;8.07;;;3.20;;
65691;SDS011;52411;52.716;6.696;2022-08-27T00:40:47;7.05;;;3.38;;
65691;SDS011;52411;52.716;6.696;2022-08-27T00:43:20;9.20;;;3.17;;
65691;SDS011;52411;52.716;6.696;2022-08-27T00:45:50;7.70;;;3.20;;
65691;SDS011;52411;52.716;6.696;2022-08-27T00:48:19;7.57;;;3.00;;
65691;SDS011;52411;52.716;6.696;2022-08-27T00:50:52;6.43;;;2.85;;
65691;SDS011;52411;52.716;6.696;2022-08-27T00:53:20;7.00;;;3.03;;
65691;SDS011;52411;52.716;6.696;2022-08-27T00:55:52;9.25;;;3.22;;
65691;SDS011;52411;52.716;6.696;2022-08-27T00:58:26;6.65;;;2.70;;
65691;SDS011;52411;52.716;6.696;2022-08-27T01:00:57;7.47;;;3.10;;
65691;SDS011;52411;52.716;6.696;2022-08-27T01:03:24;5.95;;;3.50;;
65691;SDS011;52411;52.716;6.696;2022-08-27T01:05:51;6.45;;;3.25;;
65691;SDS011;52411;52.716;6.696;2022-08-27T01:08:22;8.40;;;3.00;;
65691;SDS011;52411;52.716;6.696;2022-08-27T01:10:50;10.13;;;3.85;;
65691;SDS011;52411;52.716;6.696;2022-08-27T01:13:19;6.68;;;3.08;;
65691;SDS011;52411;52.716;6.696;2022-08-27T01:15:47;6.30;;;3.10;;
65691;SDS011;52411;52.716;6.696;2022-08-27T01:18:13;8.05;;;4.00;;
65691;SDS011;52411;52.716;6.696;2022-08-27T01:20:44;7.63;;;3.20;;
65691;SDS011;52411;52.716;6.696;2022-08-27T01:26:19;8.73;;;3.20;;
65691;SDS011;52411;52.716;6.696;2022-08-27T01:28:47;10.90;;;2.90;;
65691;SDS011;52411;52.716;6.696;2022-08-27T01:31:13;6.85;;;3.20;;
65691;SDS011;52411;52.716;6.696;2022-08-27T01:33:38;10.32;;;3.38;;
65691;SDS011;52411;52.716;6.696;2022-08-27T01:36:05;9.23;;;3.08;;
65691;SDS011;52411;52.716;6.696;2022-08-27T01:38:32;7.47;;;3.10;;
65691;SDS011;52411;52.716;6.696;2022-08-27T01:40:58;8.85;;;3.35;;
65691;SDS011;52411;52.716;6.696;2022-08-27T01:43:25;8.25;;;3.47;;
65691;SDS011;52411;52.716;6.696;2022-08-27T01:45:51;7.25;;;3.30;;
65691;SDS011;52411;52.716;6.696;2022-08-27T01:48:18;8.65;;;3.45;;
65691;SDS011;52411;52.716;6.696;2022-08-27T01:50:45;6.90;;;3.28;;
65691;SDS011;52411;52.716;6.696;2022-08-27T01:53:16;7.32;;;3.50;;
65691;SDS011;52411;52.716;6.696;2022-08-27T01:55:44;7.00;;;3.60;;
65691;SDS011;52411;52.716;6.696;2022-08-27T01:58:11;6.90;;;3.10;;
65691;SDS011;52411;52.716;6.696;2022-08-27T02:00:39;8.65;;;3.40;;
65691;SDS011;52411;52.716;6.696;2022-08-27T02:03:08;8.30;;;3.40;;
65691;SDS011;52411;52.716;6.696;2022-08-27T02:05:35;10.00;;;4.22;;
65691;SDS011;52411;52.716;6.696;2022-08-27T02:08:03;6.25;;;2.97;;
65691;SDS011;52411;52.716;6.696;2022-08-27T02:10:31;7.70;;;3.20;;
65691;SDS011;52411;52.716;6.696;2022-08-27T02:12:59;8.10;;;3.05;;
65691;SDS011;52411;52.716;6.696;2022-08-27T02:15:27;6.07;;;3.20;;
65691;SDS011;52411;52.716;6.696;2022-08-27T02:17:53;8.93;;;3.00;;
65691;SDS011;52411;52.716;6.696;2022-08-27T02:20:19;8.90;;;3.20;;
65691;SDS011;52411;52.716;6.696;2022-08-27T02:22:46;4.85;;;2.80;;
65691;SDS011;52411;52.716;6.696;2022-08-27T02:25:12;7.88;;;3.17;;
65691;SDS011;52411;52.716;6.696;2022-08-27T02:27:40;6.03;;;3.10;;
65691;SDS011;52411;52.716;6.696;2022-08-27T02:30:08;6.80;;;2.78;;
65691;SDS011;52411;52.716;6.696;2022-08-27T02:32:35;7.65;;;2.78;;
65691;SDS011;52411;52.716;6.696;2022-08-27T02:35:01;7.20;;;3.05;;
65691;SDS011;52411;52.716;6.696;2022-08-27T02:37:29;6.22;;;2.60;;
65691;SDS011;52411;52.716;6.696;2022-08-27T02:39:54;7.25;;;2.80;;
65691;SDS011;52411;52.716;6.696;2022-08-27T02:42:20;5.75;;;2.70;;
65691;SDS011;52411;52.716;6.696;2022-08-27T02:44:46;6.30;;;2.50;;
65691;SDS011;52411;52.716;6.696;2022-08-27T02:47:12;6.90;;;2.92;;
65691;SDS011;52411;52.716;6.696;2022-08-27T02:49:39;5.57;;;2.85;;
65691;SDS011;52411;52.716;6.696;2022-08-27T02:52:05;5.93;;;2.80;;
65691;SDS011;52411;52.716;6.696;2022-08-27T02:54:30;5.30;;;2.70;;
65691;SDS011;52411;52.716;6.696;2022-08-27T02:56:56;5.38;;;2.60;;
65691;SDS011;52411;52.716;6.696;2022-08-27T02:59:22;9.93;;;2.90;;
65691;SDS011;52411;52.716;6.696;2022-08-27T03:01:48;7.88;;;3.00;;
65691;SDS011;52411;52.716;6.696;2022-08-27T03:04:14;4.97;;;2.97;;
65691;SDS011;52411;52.716;6.696;2022-08-27T03:06:40;6.35;;;3.17;;
65691;SDS011;52411;52.716;6.696;2022-08-27T03:09:06;7.90;;;3.08;;
65691;SDS011;52411;52.716;6.696;2022-08-27T03:11:34;6.03;;;3.03;;
65691;SDS011;52411;52.716;6.696;2022-08-27T03:14:00;9.20;;;2.70;;
65691;SDS011;52411;52.716;6.696;2022-08-27T03:16:25;7.47;;;3.15;;
65691;SDS011;52411;52.716;6.696;2022-08-27T03:18:51;5.78;;;3.10;;
65691;SDS011;52411;52.716;6.696;2022-08-27T03:21:18;5.53;;;2.53;;
65691;SDS011;52411;52.716;6.696;2022-08-27T03:23:46;6.22;;;3.30;;
65691;SDS011;52411;52.716;6.696;2022-08-27T03:26:12;6.90;;;3.00;;
65691;SDS011;52411;52.716;6.696;2022-08-27T03:28:38;7.15;;;2.92;;
65691;SDS011;52411;52.716;6.696;2022-08-27T03:31:05;6.70;;;2.75;;
65691;SDS011;52411;52.716;6.696;2022-08-27T03:33:37;5.70;;;2.53;;
65691;SDS011;52411;52.716;6.696;2022-08-27T03:36:04;6.45;;;2.75;;
65691;SDS011;52411;52.716;6.696;2022-08-27T03:38:31;7.28;;;3.13;;
65691;SDS011;52411;52.716;6.696;2022-08-27T03:40:57;7.40;;;3.55;;
65691;SDS011;52411;52.716;6.696;2022-08-27T03:43:23;7.82;;;2.75;;
65691;SDS011;52411;52.716;6.696;2022-08-27T03:45:50;7.43;;;3.00;;
65691;SDS011;52411;52.716;6.696;2022-08-27T03:48:16;7.30;;;3.22;;
65691;SDS011;52411;52.716;6.696;2022-08-27T03:50:43;7.57;;;2.90;;
65691;SDS011;52411;52.716;6.696;2022-08-27T03:53:11;7.50;;;3.28;;
65691;SDS011;52411;52.716;6.696;2022-08-27T03:55:37;6.22;;;3.20;;
65691;SDS011;52411;52.716;6.696;2022-08-27T03:58:05;8.43;;;3.38;;
65691;SDS011;52411;52.716;6.696;2022-08-27T04:00:31;5.10;;;3.10;;
65691;SDS011;52411;52.716;6.696;2022-08-27T04:02:56;9.48;;;3.97;;
65691;SDS011;52411;52.716;6.696;2022-08-27T04:05:22;7.00;;;4.10;;
65691;SDS011;52411;52.716;6.696;2022-08-27T04:07:48;5.55;;;3.90;;
65691;SDS011;52411;52.716;6.696;2022-08-27T04:10:14;6.75;;;3.90;;
65691;SDS011;52411;52.716;6.696;2022-08-27T04:12:41;8.15;;;4.40;;
65691;SDS011;52411;52.716;6.696;2022-08-27T04:15:07;7.75;;;3.97;;
65691;SDS011;52411;52.716;6.696;2022-08-27T04:17:34;10.48;;;4.10;;
65691;SDS011;52411;52.716;6.696;2022-08-27T04:20:00;8.90;;;3.35;;
65691;SDS011;52411;52.716;6.696;2022-08-27T04:22:26;6.88;;;3.70;;
65691;SDS011;52411;52.716;6.696;2022-08-27T04:24:52;9.07;;;3.60;;
65691;SDS011;52411;52.716;6.696;2022-08-27T04:27:19;6.90;;;3.50;;
65691;SDS011;52411;52.716;6.696;2022-08-27T04:29:46;7.72;;;3.20;;
65691;SDS011;52411;52.716;6.696;2022-08-27T04:32:12;7.35;;;3.60;;
65691;SDS011;52411;52.716;6.696;2022-08-27T04:34:38;7.95;;;3.65;;
65691;SDS011;52411;52.716;6.696;2022-08-27T04:37:04;8.10;;;3.40;;
65691;SDS011;52411;52.716;6.696;2022-08-27T04:39:30;5.50;;;3.28;;
65691;SDS011;52411;52.716;6.696;2022-08-27T04:41:57;6.97;;;3.22;;
65691;SDS011;52411;52.716;6.696;2022-08-27T04:44:24;6.78;;;3.40;;
65691;SDS011;52411;52.716;6.696;2022-08-27T04:46:59;7.40;;;3.30;;
65691;SDS011;52411;52.716;6.696;2022-08-27T04:49:26;7.78;;;3.67;;
65691;SDS011;52411;52.716;6.696;2022-08-27T04:51:53;5.10;;;3.17;;
65691;SDS011;52411;52.716;6.696;2022-08-27T04:54:19;9.55;;;3.55;;
65691;SDS011;52411;52.716;6.696;2022-08-27T04:56:46;5.13;;;3.35;;
65691;SDS011;52411;52.716;6.696;2022-08-27T04:59:12;8.88;;;3.20;;
65691;SDS011;52411;52.716;6.696;2022-08-27T05:01:38;4.72;;;3.13;;
65691;SDS011;52411;52.716;6.696;2022-08-27T05:04:05;7.40;;;3.35;;
65691;SDS011;52411;52.716;6.696;2022-08-27T05:06:31;8.02;;;3.42;;
65691;SDS011;52411;52.716;6.696;2022-08-27T05:08:57;5.70;;;3.33;;
65691;SDS011;52411;52.716;6.696;2022-08-27T05:11:23;6.15;;;3.20;;
65691;SDS011;52411;52.716;6.696;2022-08-27T05:13:52;6.55;;;3.63;;
65691;SDS011;52411;52.716;6.696;2022-08-27T05:16:19;7.22;;;3.70;;
65691;SDS011;52411;52.716;6.696;2022-08-27T05:18:48;7.85;;;3.65;;
65691;SDS011;52411;52.716;6.696;2022-08-27T05:21:21;7.93;;;3.30;;
65691;SDS011;52411;52.716;6.696;2022-08-27T05:23:49;5.57;;;2.88;;
65691;SDS011;52411;52.716;6.696;2022-08-27T05:26:16;6.22;;;3.28;;
65691;SDS011;52411;52.716;6.696;2022-08-27T05:28:42;5.55;;;3.00;;
65691;SDS011;52411;52.716;6.696;2022-08-27T05:31:09;9.38;;;3.25;;
65691;SDS011;52411;52.716;6.696;2022-08-27T05:33:37;6.95;;;3.45;;
65691;SDS011;52411;52.716;6.696;2022-08-27T05:36:03;10.50;;;3.28;;
65691;SDS011;52411;52.716;6.696;2022-08-27T05:38:30;12.25;;;3.72;;
65691;SDS011;52411;52.716;6.696;2022-08-27T05:41:03;6.78;;;3.10;;
65691;SDS011;52411;52.716;6.696;2022-08-27T05:43:37;7.20;;;3.38;;
65691;SDS011;52411;52.716;6.696;2022-08-27T05:46:05;8.10;;;3.00;;
65691;SDS011;52411;52.716;6.696;2022-08-27T05:48:34;7.55;;;2.70;;
65691;SDS011;52411;52.716;6.696;2022-08-27T05:53:33;5.47;;;2.90;;
65691;SDS011;52411;52.716;6.696;2022-08-27T05:55:59;7.53;;;3.05;;
65691;SDS011;52411;52.716;6.696;2022-08-27T05:58:24;9.85;;;3.40;;
65691;SDS011;52411;52.716;6.696;2022-08-27T06:01:09;5.53;;;2.83;;
65691;SDS011;52411;52.716;6.696;2022-08-27T06:03:35;5.47;;;2.75;;
65691;SDS011;52411;52.716;6.696;2022-08-27T06:06:02;6.95;;;2.80;;
65691;SDS011;52411;52.716;6.696;2022-08-27T06:08:30;5.30;;;3.08;;
65691;SDS011;52411;52.716;6.696;2022-08-27T06:10:56;6.82;;;2.80;;
65691;SDS011;52411;52.716;6.696;2022-08-27T06:13:25;9.40;;;3.30;;
65691;SDS011;52411;52.716;6.696;2022-08-27T06:16:14;5.85;;;2.80;;
65691;SDS011;52411;52.716;6.696;2022-08-27T06:18:40;8.13;;;2.80;;
65691;SDS011;52411;52.716;6.696;2022-08-27T06:21:11;6.03;;;2.50;;
65691;SDS011;52411;52.716;6.696;2022-08-27T06:23:38;5.05;;;2.72;;
65691;SDS011;52411;52.716;6.696;2022-08-27T06:26:05;6.15;;;2.63;;
65691;SDS011;52411;52.716;6.696;2022-08-27T06:28:32;7.32;;;2.88;;
65691;SDS011;52411;52.716;6.696;2022-08-27T06:33:27;5.15;;;2.78;;
65691;SDS011;52411;52.716;6.696;2022-08-27T06:35:56;6.10;;;3.00;;
65691;SDS011;52411;52.716;6.696;2022-08-27T06:38:23;7.07;;;2.70;;
65691;SDS011;52411;52.716;6.696;2022-08-27T06:40:49;4.97;;;2.53;;
65691;SDS011;52411;52.716;6.696;2022-08-27T06:43:15;9.05;;;3.00;;
65691;SDS011;52411;52.716;6.696;2022-08-27T06:45:41;7.47;;;2.90;;
65691;SDS011;52411;52.716;6.696;2022-08-27T06:48:06;5.35;;;2.50;;
65691;SDS011;52411;52.716;6.696;2022-08-27T06:50:38;6.80;;;2.67;;
65691;SDS011;52411;52.716;6.696;2022-08-27T06:53:05;7.80;;;2.60;;
65691;SDS011;52411;52.716;6.696;2022-08-27T06:55:31;5.10;;;2.53;;
65691;SDS011;52411;52.716;6.696;2022-08-27T06:58:03;6.25;;;2.70;;
65691;SDS011;52411;52.716;6.696;2022-08-27T07:00:29;7.20;;;2.50;;
65691;SDS011;52411;52.716;6.696;2022-08-27T07:02:55;9.30;;;2.70;;
65691;SDS011;52411;52.716;6.696;2022-08-27T07:05:21;5.35;;;2.45;;
65691;SDS011;52411;52.716;6.696;2022-08-27T07:07:46;5.35;;;2.50;;
65691;SDS011;52411;52.716;6.696;2022-08-27T07:10:12;8.85;;;2.60;;
65691;SDS011;52411;52.716;6.696;2022-08-27T07:12:38;8.98;;;2.88;;
65691;SDS011;52411;52.716;6.696;2022-08-27T07:15:04;6.57;;;2.50;;
65691;SDS011;52411;52.716;6.696;2022-08-27T07:17:30;6.55;;;2.53;;
65691;SDS011;52411;52.716;6.696;2022-08-27T07:19:55;6.32;;;2.80;;
65691;SDS011;52411;52.716;6.696;2022-08-27T07:22:21;7.07;;;2.70;;
65691;SDS011;52411;52.716;6.696;2022-08-27T07:24:47;8.02;;;2.97;;
65691;SDS011;52411;52.716;6.696;2022-08-27T07:27:12;7.35;;;2.55;;
65691;SDS011;52411;52.716;6.696;2022-08-27T07:29:38;9.05;;;4.05;;
65691;SDS011;52411;52.716;6.696;2022-08-27T07:32:04;9.10;;;2.53;;
65691;SDS011;52411;52.716;6.696;2022-08-27T07:34:29;6.15;;;2.53;;
65691;SDS011;52411;52.716;6.696;2022-08-27T07:36:55;7.63;;;2.63;;
65691;SDS011;52411;52.716;6.696;2022-08-27T07:39:21;4.75;;;2.15;;
65691;SDS011;52411;52.716;6.696;2022-08-27T07:41:46;6.38;;;3.33;;
65691;SDS011;52411;52.716;6.696;2022-08-27T07:44:31;6.00;;;2.35;;
65691;SDS011;52411;52.716;6.696;2022-08-27T07:46:56;6.15;;;2.60;;
65691;SDS011;52411;52.716;6.696;2022-08-27T07:49:23;6.20;;;2.58;;
65691;SDS011;52411;52.716;6.696;2022-08-27T07:51:51;7.75;;;2.80;;
65691;SDS011;52411;52.716;6.696;2022-08-27T07:54:17;9.38;;;2.35;;
65691;SDS011;52411;52.716;6.696;2022-08-27T07:56:45;4.47;;;2.00;;
65691;SDS011;52411;52.716;6.696;2022-08-27T07:59:11;7.60;;;2.25;;
65691;SDS011;52411;52.716;6.696;2022-08-27T08:01:38;7.80;;;2.20;;
65691;SDS011;52411;52.716;6.696;2022-08-27T08:04:06;5.85;;;2.20;;
65691;SDS011;52411;52.716;6.696;2022-08-27T08:06:34;5.53;;;2.13;;
65691;SDS011;52411;52.716;6.696;2022-08-27T08:09:01;5.03;;;2.15;;
65691;SDS011;52411;52.716;6.696;2022-08-27T08:11:26;4.97;;;2.17;;
65691;SDS011;52411;52.716;6.696;2022-08-27T08:13:52;4.38;;;2.20;;
65691;SDS011;52411;52.716;6.696;2022-08-27T08:16:18;4.80;;;2.10;;
65691;SDS011;52411;52.716;6.696;2022-08-27T08:18:47;7.30;;;2.50;;
65691;SDS011;52411;52.716;6.696;2022-08-27T08:21:12;5.30;;;2.30;;
65691;SDS011;52411;52.716;6.696;2022-08-27T08:23:39;5.22;;;2.03;;
65691;SDS011;52411;52.716;6.696;2022-08-27T08:26:05;5.00;;;2.10;;
65691;SDS011;52411;52.716;6.696;2022-08-27T08:28:32;6.68;;;2.28;;
65691;SDS011;52411;52.716;6.696;2022-08-27T08:30:58;6.40;;;2.15;;
65691;SDS011;52411;52.716;6.696;2022-08-27T08:33:24;9.98;;;2.35;;
65691;SDS011;52411;52.716;6.696;2022-08-27T08:35:51;9.32;;;2.40;;
65691;SDS011;52411;52.716;6.696;2022-08-27T08:38:17;7.25;;;2.20;;
65691;SDS011;52411;52.716;6.696;2022-08-27T08:40:48;7.75;;;2.30;;
65691;SDS011;52411;52.716;6.696;2022-08-27T08:46:12;4.20;;;2.00;;
65691;SDS011;52411;52.716;6.696;2022-08-27T08:48:46;5.95;;;2.35;;
65691;SDS011;52411;52.716;6.696;2022-08-27T08:51:21;6.70;;;1.90;;
65691;SDS011;52411;52.716;6.696;2022-08-27T08:53:57;5.32;;;2.30;;
65691;SDS011;52411;52.716;6.696;2022-08-27T08:59:31;9.63;;;2.20;;
65691;SDS011;52411;52.716;6.696;2022-08-27T09:02:03;5.25;;;2.08;;
65691;SDS011;52411;52.716;6.696;2022-08-27T09:04:34;5.40;;;2.30;;
65691;SDS011;52411;52.716;6.696;2022-08-27T09:07:05;7.50;;;1.83;;
65691;SDS011;52411;52.716;6.696;2022-08-27T09:10:41;10.40;;;2.28;;
65691;SDS011;52411;52.716;6.696;2022-08-27T09:12:57;8.50;;;2.10;;
65691;SDS011;52411;52.716;6.696;2022-08-27T09:15:30;6.68;;;2.08;;
65691;SDS011;52411;52.716;6.696;2022-08-27T09:18:04;7.05;;;2.13;;
65691;SDS011;52411;52.716;6.696;2022-08-27T09:25:39;5.90;;;2.22;;
65691;SDS011;52411;52.716;6.696;2022-08-27T09:28:09;6.95;;;1.90;;
65691;SDS011;52411;52.716;6.696;2022-08-27T09:30:59;8.10;;;2.13;;
65691;SDS011;52411;52.716;6.696;2022-08-27T09:33:31;5.53;;;1.73;;
65691;SDS011;52411;52.716;6.696;2022-08-27T09:36:00;6.57;;;2.00;;
65691;SDS011;52411;52.716;6.696;2022-08-27T09:38:31;12.82;;;2.25;;
65691;SDS011;52411;52.716;6.696;2022-08-27T09:41:01;7.50;;;2.30;;
65691;SDS011;52411;52.716;6.696;2022-08-27T09:43:30;3.88;;;1.85;;
65691;SDS011;52411;52.716;6.696;2022-08-27T09:45:57;5.72;;;1.85;;
65691;SDS011;52411;52.716;6.696;2022-08-27T09:48:32;7.53;;;2.42;;
65691;SDS011;52411;52.716;6.696;2022-08-27T09:51:00;7.63;;;2.05;;
65691;SDS011;52411;52.716;6.696;2022-08-27T09:53:35;6.72;;;2.10;;
65691;SDS011;52411;52.716;6.696;2022-08-27T09:56:20;11.02;;;2.10;;
65691;SDS011;52411;52.716;6.696;2022-08-27T09:58:52;13.05;;;2.63;;
65691;SDS011;52411;52.716;6.696;2022-08-27T10:01:25;9.38;;;2.35;;
65691;SDS011;52411;52.716;6.696;2022-08-27T10:04:15;7.00;;;2.13;;
65691;SDS011;52411;52.716;6.696;2022-08-27T10:06:48;9.55;;;2.00;;
65691;SDS011;52411;52.716;6.696;2022-08-27T10:09:25;9.43;;;2.28;;
65691;SDS011;52411;52.716;6.696;2022-08-27T10:12:01;10.93;;;2.63;;
65691;SDS011;52411;52.716;6.696;2022-08-27T10:14:49;10.48;;;2.45;;
65691;SDS011;52411;52.716;6.696;2022-08-27T10:20:15;11.02;;;2.15;;
65691;SDS011;52411;52.716;6.696;2022-08-27T10:23:04;5.22;;;1.60;;
65691;SDS011;52411;52.716;6.696;2022-08-27T10:31:14;6.15;;;1.90;;
65691;SDS011;52411;52.716;6.696;2022-08-27T10:42:44;4.65;;;1.50;;
65691;SDS011;52411;52.716;6.696;2022-08-27T10:51:14;9.55;;;1.48;;
65691;SDS011;52411;52.716;6.696;2022-08-27T10:53:57;6.85;;;2.00;;
65691;SDS011;52411;52.716;6.696;2022-08-27T10:56:38;5.97;;;1.55;;
65691;SDS011;52411;52.716;6.696;2022-08-27T10:59:24;5.88;;;1.60;;
65691;SDS011;52411;52.716;6.696;2022-08-27T11:04:59;9.70;;;2.08;;
65691;SDS011;52411;52.716;6.696;2022-08-27T11:08:05;5.93;;;1.83;;
65691;SDS011;52411;52.716;6.696;2022-08-27T11:10:48;5.38;;;1.92;;
65691;SDS011;52411;52.716;6.696;2022-08-27T11:16:08;10.10;;;2.00;;
65691;SDS011;52411;52.716;6.696;2022-08-27T11:18:48;7.00;;;1.92;;
65691;SDS011;52411;52.716;6.696;2022-08-27T11:21:26;5.28;;;1.67;;
65691;SDS011;52411;52.716;6.696;2022-08-27T11:24:27;5.60;;;1.73;;
65691;SDS011;52411;52.716;6.696;2022-08-27T11:27:01;6.45;;;2.05;;
65691;SDS011;52411;52.716;6.696;2022-08-27T11:29:31;5.57;;;1.48;;
65691;SDS011;52411;52.716;6.696;2022-08-27T11:34:57;5.40;;;1.75;;
65691;SDS011;52411;52.716;6.696;2022-08-27T11:37:40;5.07;;;1.58;;
65691;SDS011;52411;52.716;6.696;2022-08-27T11:43:14;4.88;;;1.75;;
65691;SDS011;52411;52.716;6.696;2022-08-27T11:48:28;9.40;;;1.83;;
65691;SDS011;52411;52.716;6.696;2022-08-27T11:51:10;6.13;;;1.85;;
65691;SDS011;52411;52.716;6.696;2022-08-27T11:53:54;3.85;;;1.33;;
65691;SDS011;52411;52.716;6.696;2022-08-27T11:58:55;5.43;;;1.60;;
65691;SDS011;52411;52.716;6.696;2022-08-27T12:01:32;5.22;;;1.33;;
65691;SDS011;52411;52.716;6.696;2022-08-27T12:04:06;9.57;;;1.80;;
65691;SDS011;52411;52.716;6.696;2022-08-27T12:06:49;4.78;;;1.77;;
65691;SDS011;52411;52.716;6.696;2022-08-27T12:12:09;7.03;;;1.80;;
65691;SDS011;52411;52.716;6.696;2022-08-27T12:17:33;8.75;;;1.80;;
65691;SDS011;52411;52.716;6.696;2022-08-27T12:25:35;13.88;;;2.03;;
65691;SDS011;52411;52.716;6.696;2022-08-27T12:28:05;8.45;;;1.95;;
65691;SDS011;52411;52.716;6.696;2022-08-27T12:30:37;7.95;;;1.85;;
65691;SDS011;52411;52.716;6.696;2022-08-27T12:33:11;9.30;;;2.30;;
65691;SDS011;52411;52.716;6.696;2022-08-27T12:35:47;5.18;;;1.65;;
65691;SDS011;52411;52.716;6.696;2022-08-27T12:40:50;11.80;;;1.50;;
65691;SDS011;52411;52.716;6.696;2022-08-27T12:43:24;8.32;;;1.73;;
65691;SDS011;52411;52.716;6.696;2022-08-27T12:45:55;8.75;;;1.75;;
65691;SDS011;52411;52.716;6.696;2022-08-27T12:48:44;6.57;;;2.08;;
65691;SDS011;52411;52.716;6.696;2022-08-27T13:04:50;10.05;;;1.90;;
65691;SDS011;52411;52.716;6.696;2022-08-27T13:07:29;6.75;;;1.65;;
65691;SDS011;52411;52.716;6.696;2022-08-27T13:10:11;6.47;;;1.80;;
65691;SDS011;52411;52.716;6.696;2022-08-27T13:12:44;5.15;;;1.60;;
65691;SDS011;52411;52.716;6.696;2022-08-27T13:15:12;12.90;;;2.10;;
65691;SDS011;52411;52.716;6.696;2022-08-27T13:17:40;11.48;;;1.77;;
65691;SDS011;52411;52.716;6.696;2022-08-27T13:22:50;8.32;;;1.80;;
65691;SDS011;52411;52.716;6.696;2022-08-27T13:25:28;8.48;;;1.75;;
65691;SDS011;52411;52.716;6.696;2022-08-27T13:30:42;5.32;;;1.52;;
65691;SDS011;52411;52.716;6.696;2022-08-27T13:33:15;5.47;;;1.75;;
65691;SDS011;52411;52.716;6.696;2022-08-27T13:35:47;7.25;;;1.70;;
65691;SDS011;52411;52.716;6.696;2022-08-27T13:38:13;4.85;;;1.58;;
65691;SDS011;52411;52.716;6.696;2022-08-27T13:41:00;4.47;;;1.40;;
65691;SDS011;52411;52.716;6.696;2022-08-27T13:43:32;5.45;;;1.50;;
65691;SDS011;52411;52.716;6.696;2022-08-27T13:46:11;5.05;;;1.70;;
65691;SDS011;52411;52.716;6.696;2022-08-27T13:48:40;5.00;;;1.63;;
65691;SDS011;52411;52.716;6.696;2022-08-27T13:51:07;4.57;;;1.73;;
65691;SDS011;52411;52.716;6.696;2022-08-27T13:53:33;4.03;;;1.50;;
65691;SDS011;52411;52.716;6.696;2022-08-27T13:56:26;6.07;;;1.50;;
65691;SDS011;52411;52.716;6.696;2022-08-27T13:59:05;6.63;;;1.63;;
65691;SDS011;52411;52.716;6.696;2022-08-27T14:01:36;6.50;;;1.85;;
65691;SDS011;52411;52.716;6.696;2022-08-27T14:04:07;11.57;;;1.70;;
65691;SDS011;52411;52.716;6.696;2022-08-27T14:06:44;5.40;;;1.70;;
65691;SDS011;52411;52.716;6.696;2022-08-27T14:09:15;6.60;;;1.60;;
65691;SDS011;52411;52.716;6.696;2022-08-27T14:11:44;5.43;;;1.45;;
65691;SDS011;52411;52.716;6.696;2022-08-27T14:14:11;5.60;;;1.70;;
65691;SDS011;52411;52.716;6.696;2022-08-27T14:16:37;7.05;;;1.52;;
65691;SDS011;52411;52.716;6.696;2022-08-27T14:21:59;6.25;;;1.70;;
65691;SDS011;52411;52.716;6.696;2022-08-27T14:24:26;5.97;;;1.67;;
65691;SDS011;52411;52.716;6.696;2022-08-27T14:26:54;5.82;;;1.50;;
65691;SDS011;52411;52.716;6.696;2022-08-27T14:29:30;4.75;;;1.45;;
65691;SDS011;52411;52.716;6.696;2022-08-27T14:31:55;6.07;;;1.40;;
65691;SDS011;52411;52.716;6.696;2022-08-27T14:34:21;5.32;;;1.35;;
65691;SDS011;52411;52.716;6.696;2022-08-27T14:36:47;7.55;;;1.88;;
65691;SDS011;52411;52.716;6.696;2022-08-27T14:39:12;8.35;;;1.63;;
65691;SDS011;52411;52.716;6.696;2022-08-27T14:41:38;5.28;;;1.50;;
65691;SDS011;52411;52.716;6.696;2022-08-27T14:44:04;5.28;;;1.50;;
65691;SDS011;52411;52.716;6.696;2022-08-27T14:46:32;8.75;;;1.52;;
65691;SDS011;52411;52.716;6.696;2022-08-27T14:49:04;7.13;;;1.98;;
65691;SDS011;52411;52.716;6.696;2022-08-27T14:51:35;6.03;;;1.52;;
65691;SDS011;52411;52.716;6.696;2022-08-27T14:54:02;5.80;;;1.45;;
65691;SDS011;52411;52.716;6.696;2022-08-27T14:56:28;4.85;;;1.33;;
65691;SDS011;52411;52.716;6.696;2022-08-27T14:58:54;4.35;;;1.50;;
65691;SDS011;52411;52.716;6.696;2022-08-27T15:01:21;6.95;;;1.58;;
65691;SDS011;52411;52.716;6.696;2022-08-27T15:03:48;4.78;;;1.50;;
65691;SDS011;52411;52.716;6.696;2022-08-27T15:06:15;7.20;;;1.40;;
65691;SDS011;52411;52.716;6.696;2022-08-27T15:08:41;4.65;;;1.40;;
65691;SDS011;52411;52.716;6.696;2022-08-27T15:11:11;6.05;;;1.52;;
65691;SDS011;52411;52.716;6.696;2022-08-27T15:13:43;5.50;;;1.40;;
65691;SDS011;52411;52.716;6.696;2022-08-27T15:16:11;7.00;;;1.60;;
65691;SDS011;52411;52.716;6.696;2022-08-27T15:18:38;5.32;;;1.63;;
65691;SDS011;52411;52.716;6.696;2022-08-27T15:21:03;9.32;;;1.70;;
65691;SDS011;52411;52.716;6.696;2022-08-27T15:23:29;4.82;;;1.27;;
65691;SDS011;52411;52.716;6.696;2022-08-27T15:25:55;6.20;;;1.40;;
65691;SDS011;52411;52.716;6.696;2022-08-27T15:28:21;4.63;;;1.40;;
65691;SDS011;52411;52.716;6.696;2022-08-27T15:30:46;5.68;;;1.30;;
65691;SDS011;52411;52.716;6.696;2022-08-27T15:33:12;5.47;;;1.30;;
65691;SDS011;52411;52.716;6.696;2022-08-27T15:35:38;7.00;;;1.40;;
65691;SDS011;52411;52.716;6.696;2022-08-27T15:38:03;7.22;;;1.25;;
65691;SDS011;52411;52.716;6.696;2022-08-27T15:40:30;5.57;;;1.55;;
65691;SDS011;52411;52.716;6.696;2022-08-27T15:43:00;6.25;;;1.40;;
65691;SDS011;52411;52.716;6.696;2022-08-27T15:45:28;4.65;;;1.40;;
65691;SDS011;52411;52.716;6.696;2022-08-27T15:47:55;5.43;;;1.40;;
65691;SDS011;52411;52.716;6.696;2022-08-27T15:50:22;6.15;;;1.40;;
65691;SDS011;52411;52.716;6.696;2022-08-27T15:52:48;4.43;;;1.42;;
65691;SDS011;52411;52.716;6.696;2022-08-27T15:55:21;3.95;;;1.60;;
65691;SDS011;52411;52.716;6.696;2022-08-27T15:57:48;5.32;;;1.40;;
65691;SDS011;52411;52.716;6.696;2022-08-27T16:00:14;4.63;;;1.40;;
65691;SDS011;52411;52.716;6.696;2022-08-27T16:02:41;5.60;;;1.48;;
65691;SDS011;52411;52.716;6.696;2022-08-27T16:05:09;5.45;;;1.35;;
65691;SDS011;52411;52.716;6.696;2022-08-27T16:07:35;6.53;;;1.60;;
65691;SDS011;52411;52.716;6.696;2022-08-27T16:10:01;4.57;;;1.50;;
65691;SDS011;52411;52.716;6.696;2022-08-27T16:12:28;3.67;;;1.17;;
65691;SDS011;52411;52.716;6.696;2022-08-27T16:14:54;5.70;;;1.40;;
65691;SDS011;52411;52.716;6.696;2022-08-27T16:17:20;4.68;;;1.42;;
65691;SDS011;52411;52.716;6.696;2022-08-27T16:19:46;7.35;;;1.50;;
65691;SDS011;52411;52.716;6.696;2022-08-27T16:22:13;4.65;;;1.30;;
65691;SDS011;52411;52.716;6.696;2022-08-27T16:24:40;4.68;;;1.30;;
65691;SDS011;52411;52.716;6.696;2022-08-27T16:27:05;3.97;;;1.45;;
65691;SDS011;52411;52.716;6.696;2022-08-27T16:29:31;3.53;;;1.70;;
65691;SDS011;52411;52.716;6.696;2022-08-27T16:31:57;7.32;;;2.22;;
65691;SDS011;52411;52.716;6.696;2022-08-27T16:34:24;5.22;;;1.55;;
65691;SDS011;52411;52.716;6.696;2022-08-27T16:36:51;5.50;;;1.52;;